Time;durP1;ratioP1;P1;durP2;ratioP2;P2;SDS_P1;SDS_P2;PMS_P1;PMS_P2;Temp;Humidity;BMP_temperature;BMP_pressure;BME280_temperature;BME280_humidity;BME280_pressure;Samples;Min_cycle;Max_cycle;Signal;HPM_P1;HPM_P2
2022/08/07 00:01:20;;;;;;;14.82;8.50;;;;;;;25.59;48.50;94997.69;5095634;28;20054;-86
2022/08/07 00:03:46;;;;;;;12.00;8.13;;;;;;;24.41;48.91;94836.69;5075012;28;20028;-85
2022/08/07 00:06:11;;;;;;;19.45;8.60;;;;;;;24.80;49.16;94934.72;5074431;28;20038;-85
2022/08/07 00:08:37;;;;;;;13.07;8.10;;;;;;;23.43;49.62;94742.84;5074297;28;20036;-85
2022/08/07 00:11:04;;;;;;;15.00;9.07;;;;;;;24.95;49.81;94958.97;5073986;28;20502;-85
2022/08/07 00:13:30;;;;;;;13.23;7.97;;;;;;;25.24;49.47;95000.00;5092369;28;20074;-85
2022/08/07 00:15:56;;;;;;;19.02;8.45;;;;;;;24.39;49.59;94874.19;5092856;28;20028;-85
2022/08/07 00:18:24;;;;;;;13.82;8.52;;;;;;;25.10;49.67;95000.59;5092850;28;20123;-86
2022/08/07 00:20:55;;;;;;;13.70;8.82;;;;;;;23.05;49.72;94690.53;5092642;28;20402;-85
2022/08/07 00:23:21;;;;;;;12.95;8.30;;;;;;;25.13;49.81;94997.16;5092393;28;20031;-85
2022/08/07 00:25:48;;;;;;;15.77;9.05;;;;;;;25.04;49.58;95004.00;5074087;28;20040;-85
2022/08/07 00:28:13;;;;;;;18.73;8.60;;;;;;;24.77;49.96;94968.81;5074063;28;20426;-85
2022/08/07 00:30:39;;;;;;;18.50;9.07;;;;;;;24.71;50.33;94977.63;5074261;28;20139;-85
2022/08/07 00:33:04;;;;;;;14.80;8.75;;;;;;;24.42;50.55;94950.13;5074199;28;20028;-85
2022/08/07 00:35:29;;;;;;;12.52;8.32;;;;;;;24.41;50.73;94953.22;5073713;28;20032;-85
2022/08/07 00:37:55;;;;;;;13.80;8.57;;;;;;;24.63;50.17;94960.50;5074013;28;20024;-85
2022/08/07 00:40:21;;;;;;;12.57;8.93;;;;;;;24.82;49.99;94986.66;5072963;28;20049;-86
2022/08/07 00:42:46;;;;;;;10.65;8.10;;;;;;;24.59;49.29;94938.75;5078454;28;20028;-85
2022/08/07 00:45:12;;;;;;;14.80;8.32;;;;;;;24.69;49.90;94937.31;5077615;28;20028;-85
2022/08/07 00:47:38;;;;;;;13.32;8.18;;;;;;;25.05;49.56;94995.50;5077833;28;20410;-85
2022/08/07 00:50:05;;;;;;;13.30;8.30;;;;;;;24.55;50.04;94924.38;5078106;28;20111;-85
2022/08/07 00:52:30;;;;;;;13.20;8.55;;;;;;;24.74;50.19;94974.94;5078159;28;20031;-85
2022/08/07 00:54:55;;;;;;;15.20;8.55;;;;;;;24.68;50.34;94981.84;5077744;28;20154;-86
2022/08/07 00:57:22;;;;;;;15.07;7.82;;;;;;;24.96;50.07;95006.63;5078014;28;20176;-86
2022/08/07 00:59:48;;;;;;;16.35;8.40;;;;;;;24.70;49.82;94981.50;5077764;28;20468;-85
2022/08/07 01:02:14;;;;;;;15.05;7.70;;;;;;;24.73;49.40;94964.47;5077812;28;20093;-85
2022/08/07 01:04:40;;;;;;;10.52;8.52;;;;;;;24.45;50.00;94952.13;5078080;28;20031;-85
2022/08/07 01:07:05;;;;;;;11.55;7.43;;;;;;;24.47;50.03;94938.97;5096030;28;20099;-85
2022/08/07 01:09:32;;;;;;;14.63;8.10;;;;;;;24.80;49.73;94980.81;5077742;28;20520;-85
2022/08/07 01:11:58;;;;;;;16.25;7.78;;;;;;;24.71;49.53;94947.81;5096515;28;20055;-85
2022/08/07 01:14:24;;;;;;;13.55;7.82;;;;;;;24.43;49.81;94907.53;5077891;28;20032;-85
2022/08/07 01:16:51;;;;;;;10.23;7.68;;;;;;;24.84;50.32;94993.28;5095843;28;20032;-85
2022/08/07 01:19:18;;;;;;;14.82;7.95;;;;;;;25.05;50.15;95016.44;5077536;28;20556;-85
2022/08/07 01:21:46;;;;;;;12.43;7.70;;;;;;;25.03;50.39;95019.50;5077377;28;20028;-85
2022/08/07 01:24:12;;;;;;;12.30;8.45;;;;;;;24.75;50.93;95019.91;5077085;28;20409;-85
2022/08/07 01:26:37;;;;;;;22.10;8.52;;;;;;;24.40;51.88;95003.16;5077178;28;20024;-85
2022/08/07 01:29:03;;;;;;;13.90;7.28;;;;;;;24.25;51.29;94960.72;5077419;28;20031;-86
2022/08/07 01:31:32;;;;;;;13.07;8.13;;;;;;;24.82;50.87;95027.34;5095784;28;20038;-85
2022/08/07 01:33:58;;;;;;;11.40;8.32;;;;;;;23.63;52.44;94939.25;5076563;28;20027;-85
2022/08/07 01:36:25;;;;;;;12.32;8.63;;;;;;;24.34;52.36;95024.34;5076974;28;20093;-85
2022/08/07 01:38:51;;;;;;;15.98;8.30;;;;;;;24.63;51.56;95020.13;5095023;28;20582;-85
2022/08/07 01:41:19;;;;;;;11.98;7.53;;;;;;;24.10;51.67;94952.38;5095416;28;20032;-85
2022/08/07 01:43:45;;;;;;;9.65;7.75;;;;;;;24.35;51.33;94970.94;5094930;28;20028;-85
2022/08/07 01:46:11;;;;;;;14.80;7.95;;;;;;;24.10;51.14;94959.72;5076751;28;20039;-85
2022/08/07 01:48:37;;;;;;;14.07;7.75;;;;;;;24.21;51.44;94969.59;5073396;28;20491;-85
2022/08/07 01:51:08;;;;;;;11.18;8.50;;;;;;;24.92;50.60;95053.88;5072733;28;20028;-85
2022/08/07 01:53:37;;;;;;;11.77;7.97;;;;;;;24.98;50.33;95069.44;5086896;28;20063;-85
2022/08/07 01:56:12;;;;;;;13.70;7.85;;;;;;;24.61;49.89;95035.97;5077332;28;20071;-85
2022/08/07 01:58:43;;;;;;;11.50;7.57;;;;;;;25.03;48.69;95106.31;5077199;28;20065;-86
2022/08/07 02:01:14;;;;;;;13.98;7.82;;;;;;;25.03;47.76;95102.81;5077276;28;20036;-86
2022/08/07 02:03:44;;;;;;;13.90;7.60;;;;;;;25.03;47.82;95087.34;5077383;28;20035;-85
2022/08/07 02:06:14;;;;;;;16.85;8.43;;;;;;;24.68;49.03;95048.84;5077418;28;20044;-86
2022/08/07 02:08:43;;;;;;;12.38;8.05;;;;;;;24.60;48.52;95045.25;5073599;28;20082;-86
2022/08/07 02:11:09;;;;;;;15.82;8.15;;;;;;;24.51;49.04;95091.59;5073853;28;20060;-85
2022/08/07 02:13:37;;;;;;;14.55;8.77;;;;;;;24.76;48.92;95102.81;5077202;28;20044;-86
2022/08/07 02:16:05;;;;;;;13.75;8.38;;;;;;;24.77;50.11;95088.13;5095494;28;20064;-86
2022/08/07 02:18:35;;;;;;;13.98;9.80;;;;;;;24.76;54.95;95074.94;5077341;28;20059;-86
2022/08/07 02:21:02;;;;;;;18.45;9.55;;;;;;;24.65;54.26;95087.53;5095180;28;20028;-84
2022/08/07 02:23:32;;;;;;;18.00;9.63;;;;;;;24.65;58.29;95104.59;5075714;28;20727;-85
2022/08/07 02:26:00;;;;;;;29.45;10.43;;;;;;;24.25;61.25;95117.91;5076538;28;20115;-85
2022/08/07 02:28:28;;;;;;;25.70;10.30;;;;;;;23.43;64.66;95070.31;5077027;28;20044;-86
2022/08/07 02:30:55;;;;;;;16.90;9.05;;;;;;;22.76;66.66;94969.69;5077949;28;20099;-86
2022/08/07 02:33:24;;;;;;;12.70;9.00;;;;;;;23.24;68.08;95029.75;5076551;28;20040;-86
2022/08/07 02:35:51;;;;;;;13.85;9.80;;;;;;;23.57;70.08;95084.16;5076336;28;20040;-86
2022/08/07 02:38:19;;;;;;;20.17;9.65;;;;;;;23.39;68.22;95062.13;5076631;28;20032;-86
2022/08/07 02:40:46;;;;;;;12.45;8.32;;;;;;;23.28;69.15;95060.34;5073503;28;20032;-86
2022/08/07 02:43:12;;;;;;;11.93;8.25;;;;;;;22.51;69.01;94977.25;5092637;28;20068;-87
2022/08/07 02:45:41;;;;;;;11.85;8.75;;;;;;;22.60;68.21;94999.44;5076994;28;20081;-87
2022/08/07 02:48:07;;;;;;;17.23;9.65;;;;;;;22.94;69.73;95046.53;5076375;28;20039;-87
2022/08/07 02:50:35;;;;;;;14.80;8.90;;;;;;;22.00;70.11;94927.88;5073287;28;20043;-86
2022/08/07 02:53:11;;;;;;;14.30;9.82;;;;;;;22.42;69.37;94959.69;5090348;28;20042;-86
2022/08/07 02:55:46;;;;;;;13.25;9.85;;;;;;;22.42;71.64;94962.38;5094672;28;20038;-86
2022/08/07 02:58:17;;;;;;;12.40;9.82;;;;;;;22.51;71.44;94944.81;5076373;28;20039;-86
2022/08/07 03:00:44;;;;;;;12.25;8.80;;;;;;;22.70;68.05;94984.59;5073301;28;20094;-86
2022/08/07 03:03:11;;;;;;;10.75;8.73;;;;;;;22.80;68.18;95019.22;5091222;28;20528;-86
2022/08/07 03:05:37;;;;;;;15.90;8.80;;;;;;;22.31;68.38;94968.31;5076662;28;20032;-86
2022/08/07 03:08:04;;;;;;;15.65;10.32;;;;;;;21.46;70.58;94790.13;5075945;28;20050;-86
2022/08/07 03:10:31;;;;;;;11.82;9.50;;;;;;;20.92;69.26;94746.84;5076224;28;20490;-86
2022/08/07 03:12:58;;;;;;;12.85;9.05;;;;;;;23.16;70.20;95061.28;5075483;28;20040;-85
2022/08/07 03:15:24;;;;;;;13.02;9.82;;;;;;;22.92;71.64;95013.66;5075307;28;20043;-86
2022/08/07 03:17:50;;;;;;;17.13;9.98;;;;;;;23.00;71.48;95001.06;5074657;28;20032;-87
2022/08/07 03:20:16;;;;;;;12.38;9.35;;;;;;;22.73;69.88;94943.34;5075807;28;20142;-86
2022/08/07 03:22:43;;;;;;;13.02;10.70;;;;;;;23.22;71.29;95021.19;5075273;28;20517;-86
2022/08/07 03:25:09;;;;;;;14.15;10.75;;;;;;;23.53;70.46;95050.03;5075671;28;20028;-86
2022/08/07 03:27:35;;;;;;;14.98;10.10;;;;;;;21.77;69.34;94802.78;5075085;28;20039;-86
2022/08/07 03:30:00;;;;;;;12.90;10.02;;;;;;;23.46;69.72;95043.31;5075411;28;20039;-87
2022/08/07 03:32:32;;;;;;;16.08;11.45;;;;;;;23.40;70.69;95019.63;5075756;28;20054;-86
2022/08/07 03:34:59;;;;;;;;;;;;;;;23.64;70.72;95048.31;5094164;28;20100;-86
2022/08/07 03:37:26;;;;;;;12.70;10.32;;;;;;;22.92;68.46;94948.75;5075639;28;20397;-87
2022/08/07 03:39:52;;;;;;;11.85;9.35;;;;;;;23.57;69.78;95021.13;5093869;28;20110;-87
2022/08/07 03:42:18;;;;;;;16.00;11.23;;;;;;;23.13;69.95;94932.16;5094556;28;20085;-87
2022/08/07 03:44:44;;;;;;;12.10;9.88;;;;;;;23.40;69.83;95004.16;5075476;28;20028;-86
2022/08/07 03:47:11;;;;;;;15.13;10.38;;;;;;;23.35;69.14;94995.53;5075365;28;20038;-86
2022/08/07 03:49:37;;;;;;;11.73;9.57;;;;;;;23.22;71.31;94981.41;5093187;28;20059;-86
2022/08/07 03:52:04;;;;;;;14.30;10.38;;;;;;;23.70;68.40;95063.13;5074318;28;20494;-86
2022/08/07 03:54:29;;;;;;;14.02;10.73;;;;;;;23.77;69.19;95063.25;5074865;28;20036;-86
2022/08/07 03:56:56;;;;;;;17.05;10.80;;;;;;;23.46;70.60;95005.44;5075380;28;20409;-86
2022/08/07 03:59:22;;;;;;;13.50;9.88;;;;;;;23.40;69.77;95049.38;5075081;28;20058;-86
2022/08/07 04:01:48;;;;;;;19.55;11.35;;;;;;;23.66;68.13;95065.75;5075286;28;20032;-86
2022/08/07 04:04:18;;;;;;;15.35;10.27;;;;;;;23.30;69.45;95012.88;5093457;28;20036;-86
2022/08/07 04:06:44;;;;;;;11.93;10.02;;;;;;;21.86;68.50;94800.66;5088109;28;20140;-86
2022/08/07 04:09:11;;;;;;;17.27;10.85;;;;;;;21.29;69.58;94712.28;5090185;28;20078;-86
2022/08/07 04:11:37;;;;;;;13.40;10.70;;;;;;;23.53;70.35;95039.22;5092963;28;20067;-86
2022/08/07 04:14:03;;;;;;;16.48;11.70;;;;;;;23.53;70.06;95042.69;5074776;28;20063;-86
2022/08/07 04:16:29;;;;;;;13.38;10.40;;;;;;;23.37;69.38;94999.47;5093122;28;20038;-86
2022/08/07 04:18:55;;;;;;;17.02;11.40;;;;;;;23.54;70.22;95022.63;5074827;28;20032;-86
2022/08/07 04:21:21;;;;;;;14.48;10.65;;;;;;;23.20;68.79;94986.38;5075091;28;20028;-86
2022/08/07 04:23:47;;;;;;;18.60;11.15;;;;;;;23.11;68.80;94961.50;5075102;28;20437;-86
2022/08/07 04:26:13;;;;;;;13.75;10.02;;;;;;;23.84;67.78;95079.63;5092903;28;20043;-86
2022/08/07 04:28:40;;;;;;;15.68;10.07;;;;;;;23.84;67.35;95080.41;5074871;28;20032;-86
2022/08/07 04:31:06;;;;;;;15.43;9.95;;;;;;;23.48;68.57;95053.81;5075158;28;20043;-87
2022/08/07 04:33:33;;;;;;;16.10;10.50;;;;;;;23.60;68.76;95064.47;5074449;28;20040;-86
2022/08/07 04:35:59;;;;;;;13.95;9.35;;;;;;;23.33;66.16;95063.56;5074697;28;20032;-86
2022/08/07 04:38:25;;;;;;;13.95;9.88;;;;;;;23.29;68.06;95051.88;5074805;28;20114;-86
2022/08/07 04:40:51;;;;;;;14.55;10.48;;;;;;;22.93;69.27;94949.53;5071265;28;20028;-86
2022/08/07 04:43:21;;;;;;;14.85;10.38;;;;;;;23.68;69.42;95052.66;5073319;28;20414;-87
2022/08/07 04:46:00;;;;;;;11.40;8.88;;;;;;;23.99;66.93;95097.69;5074829;28;20028;-87
2022/08/07 04:49:00;;;;;;;15.05;9.40;;;;;;;24.00;66.33;95095.75;5075028;28;20131;-86
2022/08/07 04:51:44;;;;;;;16.10;9.50;;;;;;;24.03;68.57;95092.34;5074810;28;20044;-86
2022/08/07 04:54:29;;;;;;;21.38;9.77;;;;;;;24.00;66.89;95068.66;5074486;28;20189;-86
2022/08/07 04:57:13;;;;;;;19.33;10.40;;;;;;;24.33;68.92;95098.69;5074316;28;20036;-86
2022/08/07 04:59:45;;;;;;;15.50;9.93;;;;;;;24.31;68.03;95100.97;5074901;28;20437;-86
2022/08/07 05:02:21;;;;;;;20.88;9.77;;;;;;;24.40;66.54;95119.69;5074588;28;20036;-86
2022/08/07 05:05:02;;;;;;;21.98;10.00;;;;;;;24.14;65.21;95060.78;5092473;28;20060;-86
2022/08/07 05:07:33;;;;;;;14.00;9.15;;;;;;;23.56;63.71;94976.25;5074430;28;20028;-86
2022/08/07 05:10:02;;;;;;;13.13;10.02;;;;;;;24.31;64.46;95078.50;5093092;28;20498;-86
2022/08/07 05:12:38;;;;;;;19.48;10.60;;;;;;;24.25;64.10;95061.78;5075414;28;20028;-85
2022/08/07 05:15:15;;;;;;;16.05;10.80;;;;;;;23.62;65.36;94951.22;5093533;28;20056;-86
2022/08/07 05:17:51;;;;;;;12.25;10.05;;;;;;;24.50;65.02;95089.25;5076493;28;20028;-86
2022/08/07 05:20:23;;;;;;;12.30;9.52;;;;;;;24.28;64.67;95030.44;5077084;28;20384;-86
2022/08/07 05:22:51;;;;;;;14.15;8.57;;;;;;;24.85;63.33;95119.63;5093192;28;20024;-86
2022/08/07 05:25:20;;;;;;;19.10;9.70;;;;;;;24.04;61.01;95045.13;5074991;28;20517;-86
2022/08/07 05:27:47;;;;;;;11.30;8.38;;;;;;;24.52;62.59;95073.41;5096008;28;20040;-86
2022/08/07 05:30:15;;;;;;;15.35;9.65;;;;;;;24.21;63.69;95045.44;5078197;28;20020;-86
2022/08/07 05:32:41;;;;;;;14.27;8.88;;;;;;;22.78;63.58;94883.59;5074720;28;20035;-85
2022/08/07 05:35:09;;;;;;;13.57;8.93;;;;;;;24.33;63.10;95104.09;5092884;28;20035;-86
2022/08/07 05:37:35;;;;;;;15.57;8.93;;;;;;;24.69;63.19;95123.63;5078073;28;20338;-86
2022/08/07 05:40:02;;;;;;;8.85;7.80;;;;;;;24.00;62.79;95007.16;5095532;28;20056;-85
2022/08/07 05:42:28;;;;;;;12.00;8.98;;;;;;;24.41;62.89;95077.91;5096309;28;20047;-86
2022/08/07 05:44:54;;;;;;;15.63;8.55;;;;;;;24.64;62.76;95099.56;5076818;28;20024;-86
2022/08/07 05:47:21;;;;;;;15.90;8.43;;;;;;;24.74;61.28;95102.41;5077758;28;20046;-85
2022/08/07 05:49:49;;;;;;;9.48;7.72;;;;;;;25.06;60.76;95159.09;5077810;28;20426;-85
2022/08/07 05:52:15;;;;;;;13.98;8.70;;;;;;;24.65;60.23;95112.72;5096532;28;20118;-86
2022/08/07 05:54:41;;;;;;;13.27;8.18;;;;;;;24.99;60.91;95146.19;5077530;28;20452;-85
2022/08/07 05:57:08;;;;;;;9.93;8.50;;;;;;;24.59;60.33;95087.06;5095744;28;20040;-86
2022/08/07 05:59:37;;;;;;;13.80;9.43;;;;;;;24.88;61.04;95126.22;5078091;28;20032;-86
2022/08/07 06:02:05;;;;;;;11.02;8.32;;;;;;;25.03;61.39;95165.22;5077745;28;20109;-86
2022/08/07 06:04:36;;;;;;;10.43;8.75;;;;;;;25.10;60.18;95162.66;5077764;28;20039;-86
2022/08/07 06:07:04;;;;;;;15.73;9.73;;;;;;;25.08;60.84;95162.22;5077190;28;20430;-86
2022/08/07 06:09:31;;;;;;;11.55;9.45;;;;;;;24.30;59.99;95082.34;5095495;28;20112;-86
2022/08/07 06:11:58;;;;;;;14.32;9.18;;;;;;;24.81;60.75;95120.72;5077095;28;20360;-86
2022/08/07 06:14:23;;;;;;;10.48;8.98;;;;;;;25.05;60.82;95133.88;5076758;28;20060;-85
2022/08/07 06:16:51;;;;;;;12.27;9.07;;;;;;;24.34;58.34;95080.47;5076606;28;20480;-85
2022/08/07 06:19:17;;;;;;;10.10;8.57;;;;;;;24.45;59.71;95106.63;5076727;28;20513;-85
2022/08/07 06:21:44;;;;;;;9.52;8.45;;;;;;;24.17;59.71;95063.56;5076422;28;20073;-85
2022/08/07 06:24:10;;;;;;;11.45;8.80;;;;;;;24.99;59.72;95176.03;5095282;28;20088;-85
2022/08/07 06:26:39;;;;;;;9.70;8.35;;;;;;;24.83;59.26;95137.41;5077108;28;20039;-86
2022/08/07 06:29:04;;;;;;;13.93;8.60;;;;;;;24.44;58.29;95072.53;5076732;28;20035;-86
2022/08/07 06:31:30;;;;;;;12.32;8.90;;;;;;;24.61;58.38;95092.91;5076966;28;20117;-86
2022/08/07 06:33:55;;;;;;;11.77;8.45;;;;;;;24.58;56.96;95086.28;5076707;28;20123;-86
2022/08/07 06:36:21;;;;;;;9.98;8.27;;;;;;;24.80;57.30;95113.72;5076463;28;20550;-86
2022/08/07 06:38:46;;;;;;;9.60;8.32;;;;;;;24.58;58.22;95061.88;5071891;28;20055;-86
2022/08/07 06:41:24;;;;;;;13.43;9.43;;;;;;;25.12;56.73;95160.31;5092283;28;20089;-86
2022/08/07 06:43:52;;;;;;;13.02;8.82;;;;;;;25.01;57.00;95122.22;5076821;28;20153;-85
2022/08/07 06:46:18;;;;;;;13.90;9.20;;;;;;;24.52;56.64;95027.31;5076284;28;20114;-86
2022/08/07 06:48:43;;;;;;;12.98;9.13;;;;;;;25.47;57.58;95154.59;5076719;28;20068;-86
2022/08/07 06:51:16;;;;;;;11.50;9.57;;;;;;;25.26;54.48;95149.66;5075909;28;20406;-86
2022/08/07 06:53:42;;;;;;;10.50;8.82;;;;;;;25.03;54.47;95149.72;5076279;28;20063;-85
2022/08/07 06:56:10;;;;;;;11.65;8.98;;;;;;;24.84;55.64;95117.28;5075830;28;20031;-85
2022/08/07 06:58:38;;;;;;;13.90;8.48;;;;;;;25.17;55.04;95132.88;5075782;28;20561;-86
2022/08/07 07:01:07;;;;;;;10.57;9.48;;;;;;;24.89;55.93;95077.03;5075483;28;20032;-86
2022/08/07 07:03:37;;;;;;;13.25;10.35;;;;;;;25.43;54.90;95153.75;5075600;28;20069;-86
2022/08/07 07:06:02;;;;;;;14.73;9.40;;;;;;;25.45;54.56;95152.25;5075461;28;20120;-85
2022/08/07 07:08:29;;;;;;;11.85;8.65;;;;;;;25.45;54.76;95170.47;5076431;28;20463;-86
2022/08/07 07:10:55;;;;;;;13.10;8.82;;;;;;;24.91;54.78;95098.41;5075840;28;20030;-86
2022/08/07 07:13:36;;;;;;;17.48;9.13;;;;;;;25.53;54.10;95170.19;5093945;28;20594;-86
2022/08/07 07:16:06;;;;;;;10.30;8.83;;;;;;;25.31;53.98;95136.56;5075710;28;20030;-85
2022/08/07 07:18:39;;;;;;;11.67;8.73;;;;;;;25.53;53.86;95153.91;5075645;28;20752;-86
2022/08/07 07:21:26;;;;;;;10.32;8.30;;;;;;;24.89;51.65;95049.13;5075439;28;20819;-86
2022/08/07 07:23:53;;;;;;;18.17;9.15;;;;;;;25.84;52.34;95160.13;5094069;28;20519;-86
2022/08/07 07:26:21;;;;;;;10.52;8.55;;;;;;;25.47;51.57;95120.09;5075924;28;20031;-86
2022/08/07 07:28:56;;;;;;;16.42;9.27;;;;;;;25.74;51.60;95156.13;5075448;28;20077;-86
2022/08/07 07:31:31;;;;;;;13.43;9.18;;;;;;;25.89;50.22;95165.22;5075224;28;20024;-85
2022/08/07 07:34:03;;;;;;;10.15;8.60;;;;;;;26.03;49.93;95162.66;5093809;28;20032;-86
2022/08/07 07:36:31;;;;;;;11.02;9.15;;;;;;;25.97;49.95;95135.03;5075610;28;20500;-86
2022/08/07 07:38:59;;;;;;;11.85;8.70;;;;;;;25.77;49.08;95144.53;5092632;28;20051;-86
2022/08/07 07:41:26;;;;;;;14.93;12.20;;;;;;;25.68;50.50;95138.59;5075428;28;20035;-86
2022/08/07 07:43:53;;;;;;;16.75;12.77;;;;;;;25.75;49.30;95152.25;5093649;28;20032;-86
2022/08/07 07:46:22;;;;;;;20.85;15.38;;;;;;;25.75;49.38;95139.47;5075609;28;20081;-85
2022/08/07 07:48:49;;;;;;;23.25;15.82;;;;;;;26.08;48.49;95174.00;5092850;28;20032;-85
2022/08/07 07:51:17;;;;;;;25.02;16.75;;;;;;;25.93;48.63;95142.38;5092707;28;20518;-86
2022/08/07 07:53:46;;;;;;;29.27;18.58;;;;;;;23.38;47.59;94743.97;5092984;28;20115;-86
2022/08/07 07:56:12;;;;;;;24.80;19.80;;;;;;;26.24;48.04;95165.59;5073604;28;20035;-86
2022/08/07 07:58:39;;;;;;;20.02;15.73;;;;;;;25.45;46.44;95045.59;5074840;28;20498;-86
2022/08/07 08:01:06;;;;;;;21.08;15.90;;;;;;;26.29;47.15;95153.63;5075097;28;20028;-86
2022/08/07 08:03:35;;;;;;;18.20;13.85;;;;;;;26.20;48.63;95159.34;5093433;28;20047;-86
2022/08/07 08:06:01;;;;;;;17.83;12.57;;;;;;;26.17;48.09;95168.22;5075300;28;20028;-85
2022/08/07 08:08:31;;;;;;;14.68;10.63;;;;;;;25.27;47.24;94996.53;5075332;28;20189;-85
2022/08/07 08:11:01;;;;;;;15.77;10.40;;;;;;;26.18;46.88;95142.63;5074784;28;20032;-86
2022/08/07 08:13:28;;;;;;;15.93;10.77;;;;;;;26.61;47.82;95194.72;5074853;28;20421;-86
2022/08/07 08:15:57;;;;;;;12.82;9.77;;;;;;;26.38;47.80;95145.94;5092923;28;20518;-85
2022/08/07 08:18:25;;;;;;;10.32;8.77;;;;;;;26.64;48.13;95197.44;5075405;28;20043;-86
2022/08/07 08:20:51;;;;;;;10.70;9.43;;;;;;;26.38;47.40;95130.41;5075969;28;20031;-86
2022/08/07 08:28:52;;;;;;;14.90;9.35;;;;;;;26.56;45.81;95135.22;5093533;28;20127;-85
2022/08/07 08:31:24;;;;;;;14.18;8.63;;;;;;;26.86;45.45;95174.69;5074812;28;20028;-85
2022/08/07 08:33:53;;;;;;;12.48;8.65;;;;;;;26.71;45.80;95143.09;5092696;28;20032;-86
2022/08/07 08:36:20;;;;;;;10.27;8.90;;;;;;;27.14;47.05;95192.44;5075259;28;20032;-85
2022/08/07 08:38:48;;;;;;;10.85;9.15;;;;;;;26.42;47.53;95104.03;5071245;28;20132;-86
2022/08/07 08:41:33;;;;;;;12.20;8.88;;;;;;;26.87;45.92;95186.38;5074949;28;20042;-86
2022/08/07 08:44:09;;;;;;;13.38;9.38;;;;;;;26.40;45.88;95076.44;5075029;28;20043;-85
2022/08/07 08:47:01;;;;;;;12.07;8.60;;;;;;;27.17;47.17;95189.72;5093098;28;20036;-86
2022/08/07 08:49:59;;;;;;;11.07;9.23;;;;;;;26.76;46.82;95115.56;5074365;28;20115;-85
2022/08/07 08:52:32;;;;;;;12.45;8.70;;;;;;;26.62;45.77;95092.94;5071163;28;20048;-86
2022/08/07 08:55:17;;;;;;;11.07;9.00;;;;;;;27.32;44.78;95189.81;5087862;28;20036;-86
2022/08/07 08:57:50;;;;;;;14.90;9.10;;;;;;;26.97;44.30;95136.72;5074424;28;20067;-86
2022/08/07 09:00:17;;;;;;;10.30;8.35;;;;;;;27.28;44.14;95155.19;5074258;28;20064;-85
2022/08/07 09:02:48;;;;;;;9.40;8.38;;;;;;;27.62;43.79;95184.94;5076871;28;20106;-85
2022/08/07 09:05:33;;;;;;;12.07;8.55;;;;;;;27.42;44.50;95151.75;5077921;28;20486;-86
2022/08/07 09:08:20;;;;;;;10.63;8.35;;;;;;;27.61;45.15;95176.03;5078572;28;20043;-85
2022/08/07 09:10:55;;;;;;;9.23;8.15;;;;;;;27.30;44.98;95118.63;5078461;28;20036;-86
2022/08/07 09:13:45;;;;;;;11.73;8.10;;;;;;;27.75;44.42;95185.41;5095824;28;20043;-86
2022/08/07 09:16:26;;;;;;;8.75;7.85;;;;;;;27.59;42.71;95129.31;5078622;28;20066;-86
2022/08/07 09:19:09;;;;;;;11.18;7.57;;;;;;;27.90;43.08;95181.56;5078355;28;20101;-86
2022/08/07 09:21:46;;;;;;;11.60;8.80;;;;;;;27.85;42.50;95149.22;5096094;28;20040;-86
2022/08/07 09:24:36;;;;;;;11.88;8.20;;;;;;;28.09;42.50;95181.25;5095878;28;20036;-86
2022/08/07 09:27:23;;;;;;;9.10;7.60;;;;;;;28.09;42.22;95180.47;5091544;28;20039;-86
2022/08/07 09:29:48;;;;;;;10.82;8.13;;;;;;;28.24;43.06;95163.00;5096694;28;20490;-86
2022/08/07 09:32:46;;;;;;;9.32;8.00;;;;;;;28.06;41.74;95153.97;5077624;28;20180;-86
2022/08/07 09:35:36;;;;;;;9.52;7.70;;;;;;;27.77;42.23;95110.28;5040709;28;20048;-86
2022/08/07 09:38:10;;;;;;;11.02;7.57;;;;;;;28.16;42.21;95150.50;5077683;28;20445;-86
2022/08/07 09:40:52;;;;;;;8.93;7.80;;;;;;;28.26;42.43;95150.53;5095837;28;20048;-86
2022/08/07 09:43:32;;;;;;;;;;;;;;;28.23;42.48;95155.97;5078360;28;20031;-86
2022/08/07 09:46:14;;;;;;;8.43;7.30;;;;;;;27.87;41.69;95125.09;5077539;28;20015;-85
2022/08/07 09:48:54;;;;;;;7.82;6.85;;;;;;;28.12;42.07;95146.97;5096169;28;20031;-85
2022/08/07 09:51:44;;;;;;;8.80;7.43;;;;;;;28.11;43.29;95151.66;5096043;28;20040;-86
2022/08/07 09:54:19;;;;;;;11.63;7.43;;;;;;;27.80;40.31;95095.13;5077500;28;20126;-86
2022/08/07 09:57:17;;;;;;;8.02;7.22;;;;;;;28.72;40.23;95157.97;5077155;28;20044;-86
2022/08/07 10:00:04;;;;;;;9.15;6.72;;;;;;;29.59;37.07;95133.69;5077234;28;20210;-85
2022/08/07 10:02:55;;;;;;;10.48;6.97;;;;;;;30.53;36.63;95136.34;5073593;28;20118;-85
2022/08/07 10:05:42;;;;;;;11.53;6.17;;;;;;;31.74;34.53;95140.69;5077450;28;20131;-85
2022/08/07 10:08:32;;;;;;;8.38;6.05;;;;;;;31.90;32.77;95127.16;5076651;28;20043;-85
2022/08/07 10:11:07;;;;;;;7.18;6.47;;;;;;;33.09;31.74;95122.25;5077175;28;20032;-86
2022/08/07 10:13:49;;;;;;;8.98;6.20;;;;;;;33.21;30.44;95069.44;5095126;28;20121;-85
2022/08/07 10:16:15;;;;;;;6.55;5.55;;;;;;;33.58;30.39;95115.84;5076793;28;20044;-85
2022/08/07 10:19:10;;;;;;;7.47;5.70;;;;;;;32.33;30.94;95055.25;5077221;28;20044;-86
2022/08/07 10:21:48;;;;;;;8.77;6.40;;;;;;;32.39;31.58;95128.47;5095404;28;20042;-85
2022/08/07 10:24:48;;;;;;;11.68;6.15;;;;;;;32.70;32.20;95107.22;5077995;28;20036;-85
2022/08/07 10:27:32;;;;;;;7.03;6.32;;;;;;;30.35;31.76;94757.38;5080122;28;20051;-86
2022/08/07 10:30:18;;;;;;;9.93;6.15;;;;;;;31.74;32.55;95058.44;5078297;28;20666;-86
2022/08/07 10:33:09;;;;;;;8.82;6.40;;;;;;;32.25;32.71;95122.41;5095400;28;20036;-86
2022/08/07 10:35:52;;;;;;;8.50;6.40;;;;;;;32.67;31.81;95099.00;5077130;28;20036;-85
2022/08/07 10:38:19;;;;;;;7.80;5.28;;;;;;;32.86;31.72;95123.06;5095412;28;20052;-85
2022/08/07 10:41:05;;;;;;;6.47;5.72;;;;;;;32.59;33.10;95093.63;5074260;28;20038;-86
2022/08/07 10:43:41;;;;;;;8.35;6.28;;;;;;;33.13;31.22;95112.75;5077280;28;20024;-85
2022/08/07 10:46:19;;;;;;;10.13;5.65;;;;;;;33.21;30.47;95085.94;5077143;28;20028;-86
2022/08/07 10:48:53;;;;;;;10.55;5.80;;;;;;;33.73;30.34;95135.59;5095112;28;20062;-85
2022/08/07 10:51:37;;;;;;;7.57;6.40;;;;;;;32.82;31.33;95042.69;5077090;28;20521;-85
2022/08/07 10:54:21;;;;;;;7.45;5.85;;;;;;;33.38;31.21;95128.81;5095143;28;20032;-85
2022/08/07 10:57:11;;;;;;;6.57;5.88;;;;;;;32.76;32.05;95122.03;5095915;28;20100;-85
2022/08/07 10:59:51;;;;;;;7.33;6.40;;;;;;;32.48;32.50;95125.22;5097236;28;20471;-85
2022/08/07 11:02:41;;;;;;;10.70;6.68;;;;;;;32.37;33.06;95127.31;5098149;28;20040;-85
2022/08/07 11:05:22;;;;;;;9.75;7.25;;;;;;;30.94;34.72;95012.41;5091721;28;20495;-85
2022/08/07 11:08:14;;;;;;;7.53;6.70;;;;;;;31.62;34.92;95122.81;5091507;28;20031;-85
2022/08/07 11:10:42;;;;;;;9.85;7.55;;;;;;;31.18;35.43;95096.28;5082942;28;20573;-85
2022/08/07 11:13:41;;;;;;;12.38;7.05;;;;;;;31.77;34.86;95117.94;5082267;28;20040;-85
2022/08/07 11:16:21;;;;;;;9.23;6.78;;;;;;;31.93;34.11;95076.19;5079398;28;20035;-85
2022/08/07 11:19:04;;;;;;;8.57;7.25;;;;;;;31.76;33.84;95064.28;5078918;28;20461;-85
2022/08/07 11:21:53;;;;;;;7.05;6.35;;;;;;;32.00;34.95;95123.50;5096608;28;20474;-85
2022/08/07 11:24:46;;;;;;;7.18;6.43;;;;;;;31.43;33.94;95055.66;5093998;28;20485;-85
2022/08/07 11:27:44;;;;;;;11.90;6.22;;;;;;;32.45;33.32;95137.00;5073055;28;20399;-85
2022/08/07 11:30:23;;;;;;;9.05;6.72;;;;;;;32.52;32.73;95093.75;4987144;28;20044;-85
2022/08/07 11:32:48;;;;;;;9.00;7.05;;;;;;;32.92;33.49;95141.38;5075544;28;20036;-85
2022/08/07 11:35:25;;;;;;;10.20;7.05;;;;;;;33.29;32.74;95095.59;5075263;28;20431;-85
2022/08/07 11:38:12;;;;;;;8.65;7.25;;;;;;;33.85;32.62;95121.22;5093687;28;20047;-85
2022/08/07 11:40:45;;;;;;;8.90;7.28;;;;;;;33.26;33.09;95129.44;5075557;28;20094;-85
2022/08/07 11:43:21;;;;;;;9.25;7.63;;;;;;;32.72;33.44;95132.31;5093582;28;20035;-85
2022/08/07 11:46:13;;;;;;;9.05;6.57;;;;;;;32.63;33.60;95143.00;5074850;28;20043;-85
2022/08/07 11:48:45;;;;;;;13.38;7.78;;;;;;;31.89;35.31;95144.78;5074340;28;20063;-85
2022/08/07 11:51:26;;;;;;;13.73;7.65;;;;;;;31.65;36.08;95146.69;5074741;28;20039;-85
2022/08/07 11:54:16;;;;;;;11.55;7.40;;;;;;;31.97;35.48;95145.47;5074441;28;20040;-85